createdAt,value
2023-05-17T00:02:08.808Z,11.39
2023-05-17T00:04:42.342Z,11.34
2023-05-17T00:07:15.018Z,11.22
2023-05-17T00:09:54.536Z,11.28
2023-05-17T00:12:33.771Z,11.29
2023-05-17T00:15:07.575Z,11.33
2023-05-17T00:17:41.096Z,11.19
2023-05-17T00:20:19.051Z,11.31
2023-05-17T00:25:33.214Z,11.36
2023-05-17T00:30:51.591Z,11.25
2023-05-17T00:33:22.402Z,11.29
2023-05-17T00:36:02.548Z,11.16
2023-05-17T00:38:34.596Z,11.29
2023-05-17T00:41:04.776Z,11.27
2023-05-17T00:43:35.534Z,11.23
2023-05-17T00:46:08.710Z,11.30
2023-05-17T00:48:52.664Z,11.36
2023-05-17T00:51:34.053Z,11.31
2023-05-17T00:54:04.913Z,11.26
2023-05-17T00:56:39.695Z,11.30
2023-05-17T00:59:10.716Z,11.32
2023-05-17T01:01:48.122Z,11.24
2023-05-17T01:04:19.503Z,11.20
2023-05-17T01:06:48.904Z,11.16
2023-05-17T01:09:22.651Z,11.13
2023-05-17T01:12:05.696Z,11.06
2023-05-17T01:14:55.521Z,11.18
2023-05-17T01:18:10.791Z,10.99
2023-05-17T01:20:48.531Z,11.15
2023-05-17T01:23:38.218Z,11.16
2023-05-17T01:26:34.323Z,11.19
2023-05-17T01:29:11.343Z,11.23
2023-05-17T01:31:44.971Z,11.20
2023-05-17T01:34:16.610Z,11.14
2023-05-17T01:36:56.185Z,11.16
2023-05-17T01:39:35.201Z,11.13
2023-05-17T01:42:26.859Z,11.04
2023-05-17T01:45:19.966Z,11.09
2023-05-17T01:48:47.011Z,11.18
2023-05-17T01:51:24.103Z,11.13
2023-05-17T01:53:58.458Z,11.10
2023-05-17T01:56:33.529Z,10.96
2023-05-17T01:59:10.039Z,11.07
2023-05-17T02:01:42.745Z,10.95
2023-05-17T02:04:32.700Z,11.01
2023-05-17T02:07:12.278Z,11.00
2023-05-17T02:10:00.352Z,10.91
2023-05-17T02:12:30.286Z,10.98
2023-05-17T02:15:04.306Z,10.99
2023-05-17T02:17:48.803Z,11.05
2023-05-17T02:20:22.002Z,11.02
2023-05-17T02:22:52.464Z,11.06
2023-05-17T02:25:28.659Z,10.97
2023-05-17T02:27:59.650Z,10.99
2023-05-17T02:30:43.512Z,11.04
2023-05-17T02:33:22.096Z,11.05
2023-05-17T02:35:56.607Z,11.08
2023-05-17T02:38:28.085Z,11.05
2023-05-17T02:41:00.966Z,11.04
2023-05-17T02:43:37.503Z,11.06
2023-05-17T02:46:12.562Z,11.01
2023-05-17T02:48:50.549Z,10.91
2023-05-17T02:51:33.905Z,11.07
2023-05-17T02:54:17.041Z,11.01
2023-05-17T02:56:48.596Z,11.06
2023-05-17T02:59:20.542Z,11.02
2023-05-17T03:01:54.752Z,11.03
2023-05-17T03:04:39.665Z,11.09
2023-05-17T03:07:18.832Z,11.06
2023-05-17T03:09:54.497Z,11.08
2023-05-17T03:12:29.645Z,11.01
2023-05-17T03:15:05.658Z,11.04
2023-05-17T03:17:49.467Z,11.07
2023-05-17T03:23:08.771Z,10.94
2023-05-17T03:25:49.384Z,10.71
2023-05-17T03:31:07.737Z,11.01
2023-05-17T03:33:41.529Z,10.87
2023-05-17T03:36:16.774Z,10.85
2023-05-17T03:39:01.057Z,11.07
2023-05-17T03:41:42.635Z,11.06
2023-05-17T03:47:00.115Z,11.09
2023-05-17T03:49:34.397Z,10.97
2023-05-17T03:52:05.732Z,11.03
2023-05-17T03:54:48.359Z,11.04
2023-05-17T03:57:31.993Z,11.04
2023-05-17T04:00:02.895Z,11.00
2023-05-17T04:03:03.157Z,11.00
2023-05-17T04:05:40.268Z,11.04
2023-05-17T04:08:14.037Z,11.11
2023-05-17T04:10:48.208Z,11.18
2023-05-17T04:13:22.261Z,11.14
2023-05-17T04:15:52.819Z,11.06
2023-05-17T04:18:30.426Z,11.05
2023-05-17T04:21:01.522Z,11.13
2023-05-17T04:26:23.531Z,11.07
2023-05-17T04:28:55.699Z,11.10
2023-05-17T04:31:31.371Z,11.08
2023-05-17T04:34:02.699Z,11.17
2023-05-17T04:36:56.794Z,11.14
2023-05-17T04:39:36.843Z,11.14
2023-05-17T04:42:07.980Z,11.06
2023-05-17T04:44:48.953Z,11.11
2023-05-17T04:47:25.796Z,11.19
2023-05-17T04:49:59.597Z,11.22
2023-05-17T04:52:32.956Z,11.21
2023-05-17T04:55:08.473Z,11.21
2023-05-17T04:57:40.625Z,11.06
2023-05-17T05:00:16.857Z,11.32
2023-05-17T05:02:55.598Z,11.39
2023-05-17T05:05:36.080Z,11.38
2023-05-17T05:08:09.528Z,11.19
2023-05-17T05:10:59.381Z,11.40
2023-05-17T05:16:23.900Z,11.46
2023-05-17T05:18:54.970Z,11.47
2023-05-17T05:21:33.206Z,11.43
2023-05-17T05:24:04.348Z,11.16
2023-05-17T05:26:34.607Z,11.22
2023-05-17T05:29:07.377Z,11.38
2023-05-17T05:31:37.796Z,11.07
2023-05-17T05:34:13.515Z,11.35
2023-05-17T05:36:55.423Z,11.28
2023-05-17T05:39:29.032Z,11.32
2023-05-17T05:42:00.535Z,11.33
2023-05-17T05:44:28.901Z,11.41
2023-05-17T05:46:59.557Z,11.33
2023-05-17T05:49:30.891Z,11.40
2023-05-17T05:52:07.580Z,11.30
2023-05-17T05:57:24.081Z,11.47
2023-05-17T05:59:54.134Z,11.60
2023-05-17T06:02:28.688Z,11.48
2023-05-17T06:05:00.256Z,11.56
2023-05-17T06:07:44.940Z,11.62
2023-05-17T06:10:15.436Z,11.54
2023-05-17T06:12:45.192Z,11.56
2023-05-17T06:15:15.367Z,11.60
2023-05-17T06:17:50.246Z,11.67
2023-05-17T06:20:23.820Z,11.55
2023-05-17T06:23:01.522Z,11.52
2023-05-17T06:25:31.952Z,11.70
2023-05-17T06:28:18.492Z,11.44
2023-05-17T06:30:48.655Z,11.58
2023-05-17T06:33:33.520Z,11.70
2023-05-17T06:36:09.618Z,11.66
2023-05-17T06:38:43.529Z,11.64
2023-05-17T06:41:14.502Z,11.73
2023-05-17T06:44:02.952Z,11.75
2023-05-17T06:46:33.338Z,11.80
2023-05-17T06:49:12.608Z,11.78
2023-05-17T06:51:45.707Z,11.92
2023-05-17T06:54:16.587Z,11.98
2023-05-17T06:56:54.454Z,11.98
2023-05-17T07:02:21.580Z,12.00
2023-05-17T07:04:55.995Z,12.01
2023-05-17T07:07:33.147Z,12.01
2023-05-17T07:10:08.091Z,11.98
2023-05-17T07:12:50.095Z,11.84
2023-05-17T07:15:29.513Z,12.03
2023-05-17T07:18:07.933Z,12.01
2023-05-17T07:20:44.905Z,12.02
2023-05-17T07:23:14.995Z,12.00
2023-05-17T07:25:48.836Z,11.97
2023-05-17T07:28:21.100Z,12.12
2023-05-17T07:30:56.621Z,12.04
2023-05-17T07:33:25.026Z,12.20
2023-05-17T07:36:03.598Z,12.06
2023-05-17T07:38:31.710Z,12.10
2023-05-17T07:41:03.262Z,12.09
2023-05-17T07:43:35.022Z,12.05
2023-05-17T07:46:04.161Z,12.22
2023-05-17T07:48:38.940Z,12.27
2023-05-17T07:51:14.272Z,12.33
2023-05-17T07:53:44.655Z,12.31
2023-05-17T07:56:21.837Z,12.40
2023-05-17T07:58:55.499Z,12.19
2023-05-17T08:01:29.888Z,12.32
2023-05-17T08:04:05.485Z,12.23
2023-05-17T08:06:41.562Z,12.35
2023-05-17T08:09:14.123Z,12.30
2023-05-17T08:11:46.015Z,12.24
2023-05-17T08:14:21.132Z,12.32
2023-05-17T08:16:52.097Z,12.32
2023-05-17T08:22:10.698Z,12.36
2023-05-17T08:27:30.025Z,12.28
2023-05-17T08:30:14.922Z,12.39
2023-05-17T08:32:56.307Z,12.58
2023-05-17T08:38:11.736Z,12.61
2023-05-17T08:40:45.380Z,12.63
2023-05-17T08:43:17.119Z,12.59
2023-05-17T08:45:54.308Z,12.64
2023-05-17T08:48:24.406Z,12.82
2023-05-17T08:50:57.963Z,12.84
2023-05-17T08:53:28.548Z,12.85
2023-05-17T08:56:09.960Z,12.87
2023-05-17T08:58:57.589Z,12.97
2023-05-17T09:01:37.670Z,13.11
2023-05-17T09:04:15.387Z,13.08
2023-05-17T09:06:55.888Z,13.05
2023-05-17T09:09:37.132Z,13.06
2023-05-17T09:12:09.828Z,13.06
2023-05-17T09:14:40.291Z,13.13
2023-05-17T09:17:11.989Z,12.92
2023-05-17T09:19:51.122Z,13.11
2023-05-17T09:22:26.139Z,13.23
2023-05-17T09:25:03.667Z,13.21
2023-05-17T09:27:38.762Z,13.19
2023-05-17T09:30:16.016Z,13.19
2023-05-17T09:35:48.537Z,13.30
2023-05-17T09:38:19.868Z,13.29
2023-05-17T09:40:54.330Z,13.38
2023-05-17T09:43:29.506Z,13.37
2023-05-17T09:46:03.155Z,13.43
2023-05-17T09:48:35.646Z,13.44
2023-05-17T09:51:23.593Z,13.34
2023-05-17T09:54:03.083Z,13.32
2023-05-17T09:56:35.596Z,13.48
2023-05-17T09:59:13.821Z,13.49
2023-05-17T10:01:56.642Z,13.43
2023-05-17T10:04:29.112Z,13.52
2023-05-17T10:07:02.013Z,13.56
2023-05-17T10:09:39.640Z,13.54
2023-05-17T10:12:17.454Z,13.55
2023-05-17T10:14:49.071Z,13.32
2023-05-17T10:17:26.840Z,13.40
2023-05-17T10:20:00.501Z,13.48
2023-05-17T10:22:32.581Z,13.47
2023-05-17T10:25:03.333Z,13.45
2023-05-17T10:27:37.176Z,13.39
2023-05-17T10:30:19.505Z,13.46
2023-05-17T10:32:58.839Z,13.40
2023-05-17T10:35:39.345Z,13.41
2023-05-17T10:38:38.716Z,13.39
2023-05-17T10:44:11.199Z,13.36
2023-05-17T10:46:40.333Z,13.43
2023-05-17T10:49:17.125Z,13.36
2023-05-17T10:51:48.104Z,13.43
2023-05-17T10:54:22.889Z,13.42
2023-05-17T10:57:03.666Z,13.55
2023-05-17T10:59:36.765Z,13.66
2023-05-17T11:02:09.654Z,13.60
2023-05-17T11:04:43.185Z,13.39
2023-05-17T11:07:31.530Z,13.49
2023-05-17T11:10:24.390Z,13.43
2023-05-17T11:13:01.262Z,13.51
2023-05-17T11:15:34.730Z,13.48
2023-05-17T11:18:22.635Z,13.41
2023-05-17T11:21:18.580Z,13.41
2023-05-17T11:23:49.699Z,13.39
2023-05-17T11:26:33.350Z,13.28
2023-05-17T11:29:18.214Z,13.34
2023-05-17T11:31:54.911Z,13.42
2023-05-17T11:34:30.901Z,13.57
2023-05-17T11:37:05.159Z,13.63
2023-05-17T11:39:43.681Z,13.63
2023-05-17T11:42:31.721Z,13.66
2023-05-17T11:45:07.177Z,13.70
2023-05-17T11:47:55.981Z,13.68
2023-05-17T11:50:27.911Z,13.55
2023-05-17T11:53:00.593Z,13.56
2023-05-17T11:55:31.390Z,13.43
2023-05-17T11:58:06.176Z,13.35
2023-05-17T12:00:42.215Z,13.42
2023-05-17T12:03:22.913Z,13.43
2023-05-17T12:05:58.209Z,13.51
2023-05-17T12:08:32.710Z,13.54
2023-05-17T12:11:08.534Z,13.57
2023-05-17T12:13:46.174Z,13.63
2023-05-17T12:16:18.154Z,13.67
2023-05-17T12:19:04.023Z,13.86
2023-05-17T12:21:34.614Z,13.77
2023-05-17T12:24:08.130Z,13.64
2023-05-17T12:26:45.679Z,13.57
2023-05-17T12:29:18.261Z,13.78
2023-05-17T12:31:52.871Z,13.64
2023-05-17T12:37:16.708Z,13.63
2023-05-17T12:39:48.497Z,13.42
2023-05-17T12:42:21.685Z,13.51
2023-05-17T12:44:54.690Z,13.57
2023-05-17T12:47:37.759Z,13.40
2023-05-17T12:50:25.470Z,13.57
2023-05-17T12:52:53.426Z,13.40
2023-05-17T12:55:32.693Z,13.47
2023-05-17T12:58:11.965Z,13.44
2023-05-17T13:00:43.558Z,13.40
2023-05-17T13:03:16.059Z,13.45
2023-05-17T13:06:00.524Z,13.53
2023-05-17T13:08:33.217Z,13.50
2023-05-17T13:11:20.177Z,13.41
2023-05-17T13:13:51.527Z,13.53
2023-05-17T13:16:31.831Z,13.51
2023-05-17T13:19:03.715Z,13.50
2023-05-17T13:21:41.370Z,13.55
2023-05-17T13:24:20.534Z,13.63
2023-05-17T13:29:40.297Z,13.58
2023-05-17T13:32:11.669Z,13.70
2023-05-17T13:34:41.072Z,13.57
2023-05-17T13:37:12.409Z,13.49
2023-05-17T13:39:49.827Z,13.50
2023-05-17T13:42:30.604Z,13.49
2023-05-17T13:45:03.594Z,13.54
2023-05-17T13:47:40.322Z,13.50
2023-05-17T13:50:12.802Z,13.58
2023-05-17T13:55:27.637Z,13.44
2023-05-17T13:58:01.317Z,13.40
2023-05-17T14:00:35.273Z,13.62
2023-05-17T14:03:15.382Z,13.53
2023-05-17T14:05:52.259Z,13.62
2023-05-17T14:08:29.260Z,13.84
2023-05-17T14:11:00.248Z,13.58
2023-05-17T14:13:32.709Z,13.63
2023-05-17T14:16:06.600Z,13.84
2023-05-17T14:18:37.062Z,13.94
2023-05-17T14:21:05.410Z,13.91
2023-05-17T14:23:55.717Z,13.68
2023-05-17T14:29:14.553Z,13.68
2023-05-17T14:31:45.820Z,13.61
2023-05-17T14:34:15.559Z,13.54
2023-05-17T14:36:51.858Z,13.68
2023-05-17T14:39:21.588Z,13.81
2023-05-17T14:41:57.147Z,13.66
2023-05-17T14:44:29.293Z,13.66
2023-05-17T14:46:59.881Z,13.62
2023-05-17T14:49:36.268Z,13.63
2023-05-17T14:52:06.715Z,13.62
2023-05-17T14:54:40.471Z,13.70
2023-05-17T14:57:11.844Z,13.74
2023-05-17T14:59:46.625Z,13.72
2023-05-17T15:02:20.228Z,13.51
2023-05-17T15:04:51.538Z,13.69
2023-05-17T15:07:32.576Z,13.55
2023-05-17T15:10:04.115Z,13.73
2023-05-17T15:15:23.391Z,13.58
2023-05-17T15:17:56.687Z,13.35
2023-05-17T15:20:28.002Z,13.76
2023-05-17T15:22:58.204Z,13.61
2023-05-17T15:25:33.386Z,13.61
2023-05-17T15:28:03.599Z,13.73
2023-05-17T15:30:44.709Z,13.71
2023-05-17T15:33:13.364Z,13.58
2023-05-17T15:35:47.837Z,13.69
2023-05-17T15:38:27.216Z,13.62
2023-05-17T15:41:23.981Z,13.82
2023-05-17T15:43:55.687Z,13.74
2023-05-17T15:46:27.187Z,13.87
2023-05-17T15:49:06.177Z,14.05
2023-05-17T15:51:45.318Z,13.83
2023-05-17T15:54:23.218Z,13.82
2023-05-17T15:57:01.826Z,13.79
2023-05-17T15:59:29.890Z,13.89
2023-05-17T16:02:06.548Z,13.57
2023-05-17T16:04:38.888Z,14.14
2023-05-17T16:07:11.045Z,14.12
2023-05-17T16:09:50.565Z,14.27
2023-05-17T16:12:24.302Z,14.01
2023-05-17T16:14:54.373Z,14.01
2023-05-17T16:17:33.315Z,13.93
2023-05-17T16:20:07.299Z,13.88
2023-05-17T16:22:51.864Z,13.94
2023-05-17T16:28:11.273Z,13.95
2023-05-17T16:33:27.087Z,13.80
2023-05-17T16:38:46.583Z,13.73
2023-05-17T16:41:17.410Z,13.64
2023-05-17T16:43:45.385Z,13.72
2023-05-17T16:46:21.387Z,13.73
2023-05-17T16:48:54.911Z,13.72
2023-05-17T16:51:27.609Z,13.79
2023-05-17T16:54:06.864Z,13.69
2023-05-17T16:56:51.114Z,13.66
2023-05-17T16:59:41.893Z,13.58
2023-05-17T17:02:13.233Z,13.54
2023-05-17T17:04:47.383Z,13.66
2023-05-17T17:07:17.782Z,13.51
2023-05-17T17:09:47.021Z,13.41
2023-05-17T17:12:28.534Z,13.30
2023-05-17T17:15:02.082Z,13.26
2023-05-17T17:20:18.857Z,13.07
2023-05-17T17:22:51.826Z,12.93
2023-05-17T17:25:24.714Z,12.95
2023-05-17T17:28:09.469Z,13.03
2023-05-17T17:30:48.085Z,13.02
2023-05-17T17:33:18.647Z,12.76
2023-05-17T17:35:48.681Z,12.85
2023-05-17T17:38:17.231Z,12.64
2023-05-17T17:40:47.357Z,12.70
2023-05-17T17:43:17.661Z,12.71
2023-05-17T17:45:52.135Z,12.51
2023-05-17T17:48:25.892Z,12.46
2023-05-17T17:50:56.520Z,12.45
2023-05-17T17:53:28.795Z,12.53
2023-05-17T17:56:02.554Z,12.41
2023-05-17T17:58:30.859Z,12.42
2023-05-17T18:01:01.541Z,12.38
2023-05-17T18:03:30.365Z,12.31
2023-05-17T18:06:07.146Z,12.25
2023-05-17T18:08:37.897Z,12.17
2023-05-17T18:11:09.159Z,12.11
2023-05-17T18:13:43.112Z,12.03
2023-05-17T18:16:13.777Z,11.93
2023-05-17T18:18:47.937Z,11.95
2023-05-17T18:21:18.759Z,11.94
2023-05-17T18:23:56.427Z,11.82
2023-05-17T18:26:41.945Z,11.74
2023-05-17T18:29:15.892Z,11.74
2023-05-17T18:31:46.453Z,11.72
2023-05-17T18:34:18.284Z,11.56
2023-05-17T18:36:48.362Z,11.62
2023-05-17T18:39:16.541Z,11.68
2023-05-17T18:41:49.876Z,11.58
2023-05-17T18:44:24.678Z,11.29
2023-05-17T18:49:52.944Z,11.38
2023-05-17T18:52:23.907Z,11.25
2023-05-17T18:55:00.534Z,11.39
2023-05-17T18:57:30.698Z,11.35
2023-05-17T19:00:02.766Z,11.32
2023-05-17T19:02:44.066Z,11.33
2023-05-17T19:05:14.419Z,11.40
2023-05-17T19:07:51.867Z,11.35
2023-05-17T19:10:28.800Z,11.29
2023-05-17T19:12:59.374Z,11.29
2023-05-17T19:18:19.018Z,11.20
2023-05-17T19:20:48.573Z,11.17
2023-05-17T19:23:19.099Z,11.23
2023-05-17T19:25:51.457Z,11.11
2023-05-17T19:28:21.836Z,11.12
2023-05-17T19:30:52.603Z,11.16
2023-05-17T19:33:34.206Z,11.12
2023-05-17T19:36:05.252Z,10.99
2023-05-17T19:38:39.600Z,10.93
2023-05-17T19:41:19.413Z,11.02
2023-05-17T19:43:49.851Z,11.01
2023-05-17T19:46:25.956Z,10.98
2023-05-17T19:48:59.826Z,10.96
2023-05-17T19:51:31.532Z,10.85
2023-05-17T19:54:05.123Z,10.91
2023-05-17T19:56:34.799Z,10.88
2023-05-17T19:59:17.405Z,10.83
2023-05-17T20:01:53.432Z,10.77
2023-05-17T20:04:24.997Z,10.73
2023-05-17T20:06:55.924Z,10.73
2023-05-17T20:09:33.427Z,10.74
2023-05-17T20:12:11.028Z,10.68
2023-05-17T20:14:41.524Z,10.62
2023-05-17T20:17:12.924Z,10.74
2023-05-17T20:19:44.442Z,10.80
2023-05-17T20:22:15.516Z,10.66
2023-05-17T20:24:45.741Z,10.80
2023-05-17T20:27:19.256Z,10.84
2023-05-17T20:29:55.443Z,10.82
2023-05-17T20:32:26.091Z,10.83
2023-05-17T20:35:00.608Z,10.90
2023-05-17T20:37:31.621Z,10.89
2023-05-17T20:40:09.506Z,10.81
2023-05-17T20:42:45.209Z,10.68
2023-05-17T20:45:20.828Z,10.82
2023-05-17T20:47:57.116Z,10.80
2023-05-17T20:50:43.905Z,10.80
2023-05-17T20:53:14.881Z,10.55
2023-05-17T20:55:49.696Z,10.59
2023-05-17T20:58:33.766Z,10.51
2023-05-17T21:01:07.178Z,10.57
2023-05-17T21:03:42.700Z,10.47
2023-05-17T21:06:16.526Z,10.41
2023-05-17T21:08:46.566Z,10.36
2023-05-17T21:11:24.987Z,10.44
2023-05-17T21:13:55.942Z,10.36
2023-05-17T21:16:27.145Z,10.49
2023-05-17T21:18:57.710Z,10.51
2023-05-17T21:21:43.765Z,10.44
2023-05-17T21:26:59.633Z,10.49
2023-05-17T21:29:28.498Z,10.44
2023-05-17T21:32:02.170Z,10.44
2023-05-17T21:34:49.453Z,10.46
2023-05-17T21:37:24.378Z,10.46
2023-05-17T21:39:56.261Z,10.44
2023-05-17T21:42:24.689Z,10.47
2023-05-17T21:45:10.092Z,10.46
2023-05-17T21:47:47.177Z,10.37
2023-05-17T21:50:18.748Z,10.39
2023-05-17T21:52:55.428Z,10.39
2023-05-17T21:55:36.898Z,10.41
2023-05-17T21:58:19.014Z,10.26
2023-05-17T22:00:55.963Z,10.19
2023-05-17T22:03:32.274Z,10.24
2023-05-17T22:06:05.216Z,10.32
2023-05-17T22:08:45.209Z,10.31
2023-05-17T22:11:25.374Z,10.27
2023-05-17T22:14:01.839Z,10.27
2023-05-17T22:16:33.956Z,10.40
2023-05-17T22:19:11.467Z,10.47
2023-05-17T22:21:47.966Z,10.52
2023-05-17T22:24:19.719Z,10.52
2023-05-17T22:26:51.691Z,10.50
2023-05-17T22:32:19.701Z,10.58
2023-05-17T22:34:50.981Z,10.64
2023-05-17T22:37:22.902Z,10.69
2023-05-17T22:39:56.126Z,10.74
2023-05-17T22:42:27.244Z,10.67
2023-05-17T22:45:05.117Z,10.57
2023-05-17T22:47:38.989Z,10.42
2023-05-17T22:50:09.763Z,10.62
2023-05-17T22:52:41.380Z,10.62
2023-05-17T22:55:16.463Z,10.40
2023-05-17T22:57:48.053Z,10.53
2023-05-17T23:00:31.412Z,10.51
2023-05-17T23:03:02.197Z,10.39
2023-05-17T23:05:35.947Z,10.42
2023-05-17T23:10:52.335Z,10.43
2023-05-17T23:13:20.823Z,10.67
2023-05-17T23:15:59.737Z,10.66
2023-05-17T23:18:37.569Z,10.60
2023-05-17T23:21:16.871Z,10.50
2023-05-17T23:23:45.702Z,10.60
2023-05-17T23:26:26.246Z,10.52
2023-05-17T23:28:56.927Z,10.65
2023-05-17T23:31:32.195Z,10.56
2023-05-17T23:34:01.443Z,10.61
2023-05-17T23:36:33.763Z,10.60
2023-05-17T23:39:03.628Z,10.61
2023-05-17T23:41:43.494Z,10.37
2023-05-17T23:44:14.883Z,10.52
2023-05-17T23:46:45.347Z,10.43
2023-05-17T23:49:15.946Z,10.34
2023-05-17T23:51:48.927Z,10.41
2023-05-17T23:54:22.887Z,10.07
2023-05-17T23:56:54.362Z,10.38
2023-05-17T23:59:36.436Z,10.14
